Time;durP1;ratioP1;P1;durP2;ratioP2;P2;SDS_P1;SDS_P2;PMS_P1;PMS_P2;Temp;Humidity;BMP_temperature;BMP_pressure;BME280_temperature;BME280_humidity;BME280_pressure;Samples;Min_cycle;Max_cycle;Signal;HPM_P1;HPM_P2
2022/08/23 00:01:21;;;;;;;8.32;2.83;;;22.20;90.60;;;;;;5034561;28;20105;-63
2022/08/23 00:03:48;;;;;;;5.45;2.53;;;22.20;90.60;;;;;;5034392;28;20506;-65
2022/08/23 00:06:14;;;;;;;5.40;2.80;;;22.20;90.70;;;;;;5034186;28;20104;-65
2022/08/23 00:08:40;;;;;;;5.63;3.10;;;22.20;90.90;;;;;;5034300;28;20111;-66
2022/08/23 00:11:33;;;;;;;5.32;2.70;;;22.10;91.00;;;;;;5034060;28;20068;-65
2022/08/23 00:14:08;;;;;;;6.13;3.20;;;22.10;91.20;;;;;;5034182;28;20470;-65
2022/08/23 00:16:34;;;;;;;6.18;2.80;;;22.00;91.30;;;;;;5034045;28;20049;-65
2022/08/23 00:19:01;;;;;;;6.53;3.20;;;22.00;91.50;;;;;;5034081;28;20033;-65
2022/08/23 00:21:28;;;;;;;8.05;2.97;;;22.00;91.60;;;;;;5033835;28;20114;-64
2022/08/23 00:23:54;;;;;;;6.03;2.95;;;21.90;91.70;;;;;;5033926;28;20565;-65
2022/08/23 00:26:20;;;;;;;5.57;3.28;;;21.90;91.80;;;;;;5033728;28;20148;-65
2022/08/23 00:28:48;;;;;;;5.93;3.17;;;21.80;91.90;;;;;;5015789;28;20108;-65
2022/08/23 00:31:16;;;;;;;5.47;2.93;;;21.80;91.90;;;;;;5015876;28;20033;-65
2022/08/23 00:33:42;;;;;;;6.85;3.13;;;21.80;92.00;;;;;;5016086;28;20029;-65
2022/08/23 00:36:08;;;;;;;7.20;3.05;;;21.70;92.00;;;;;;5034197;28;20021;-65
2022/08/23 00:38:34;;;;;;;6.80;3.33;;;21.70;92.10;;;;;;5033742;28;20202;-65
2022/08/23 00:41:01;;;;;;;10.77;3.25;;;21.70;92.20;;;;;;5033613;28;20032;-65
2022/08/23 00:49:26;;;;;;;6.00;3.20;;;21.60;92.60;;;;;;5015965;28;20124;-64
2022/08/23 00:51:56;;;;;;;5.50;3.28;;;21.50;92.70;;;;;;5034456;28;20057;-65
2022/08/23 00:54:26;;;;;;;7.93;3.50;;;21.50;92.70;;;;;;5033521;28;20113;-66
2022/08/23 00:56:55;;;;;;;5.38;3.20;;;21.50;92.80;;;;;;5015199;28;20036;-64
2022/08/23 00:59:23;;;;;;;6.60;3.30;;;21.40;92.80;;;;;;5033074;28;20117;-65
2022/08/23 01:01:49;;;;;;;6.82;3.28;;;21.40;92.90;;;;;;5033634;28;20049;-65
2022/08/23 01:04:16;;;;;;;5.80;3.42;;;21.40;93.00;;;;;;5015614;28;20034;-65
2022/08/23 01:07:01;;;;;;;6.88;3.35;;;21.40;93.00;;;;;;5015216;28;20063;-66
2022/08/23 01:09:27;;;;;;;5.93;3.15;;;21.30;93.00;;;;;;5033091;28;20500;-64
2022/08/23 01:12:09;;;;;;;6.90;3.55;;;21.30;93.40;;;;;;5033012;28;20022;-65
2022/08/23 01:14:47;;;;;;;6.90;3.58;;;21.30;93.20;;;;;;5033211;28;20067;-65
2022/08/23 01:17:25;;;;;;;6.13;3.15;;;21.20;93.30;;;;;;5015021;28;20025;-65
2022/08/23 01:19:57;;;;;;;7.05;3.40;;;21.20;93.40;;;;;;5032881;28;20021;-66
2022/08/23 01:22:35;;;;;;;5.45;3.50;;;21.20;93.50;;;;;;5033336;28;20056;-65
2022/08/23 01:25:05;;;;;;;7.05;3.88;;;21.10;93.60;;;;;;5015053;28;20091;-65
2022/08/23 01:27:35;;;;;;;6.68;3.70;;;21.10;93.70;;;;;;5014808;28;20517;-64
2022/08/23 01:30:04;;;;;;;8.75;3.65;;;21.10;93.80;;;;;;5032606;28;20040;-66
2022/08/23 01:32:31;;;;;;;6.90;3.92;;;21.00;93.80;;;;;;5014957;28;20176;-65
2022/08/23 01:34:58;;;;;;;6.90;3.80;;;21.00;93.80;;;;;;5015198;28;20429;-66
2022/08/23 01:37:24;;;;;;;7.28;3.95;;;21.00;93.90;;;;;;5032366;28;20083;-64
2022/08/23 01:39:51;;;;;;;6.60;3.60;;;20.90;93.90;;;;;;5014893;28;20059;-65
2022/08/23 01:42:17;;;;;;;8.85;4.20;;;20.90;93.90;;;;;;5032430;28;20285;-64
2022/08/23 01:44:43;;;;;;;7.03;3.65;;;20.80;94.00;;;;;;5032435;28;20036;-65
2022/08/23 01:47:10;;;;;;;8.32;3.90;;;20.80;94.10;;;;;;5032393;28;20068;-65
2022/08/23 01:49:36;;;;;;;7.75;4.10;;;20.70;94.10;;;;;;5014211;28;20573;-66
2022/08/23 01:52:02;;;;;;;6.47;3.92;;;20.70;94.20;;;;;;5014456;28;20576;-66
2022/08/23 01:54:29;;;;;;;6.57;3.53;;;20.70;94.20;;;;;;5014320;28;20029;-65
2022/08/23 01:56:55;;;;;;;7.75;3.80;;;20.70;94.30;;;;;;5014428;28;20052;-66
2022/08/23 01:59:23;;;;;;;8.68;3.90;;;20.70;94.30;;;;;;5014176;28;20057;-64
2022/08/23 02:01:52;;;;;;;9.30;3.63;;;20.70;94.40;;;;;;5014425;28;20040;-64
2022/08/23 02:04:18;;;;;;;6.85;3.78;;;20.60;94.50;;;;;;5014202;28;20099;-65
2022/08/23 02:06:45;;;;;;;9.00;3.83;;;20.50;94.50;;;;;;5014355;28;20108;-65
2022/08/23 02:09:16;;;;;;;7.35;4.10;;;20.50;94.60;;;;;;5012988;28;20028;-65
2022/08/23 02:11:42;;;;;;;5.63;3.90;;;20.50;94.70;;;;;;5032025;28;20453;-66
2022/08/23 02:14:13;;;;;;;6.47;3.72;;;20.50;94.70;;;;;;5014283;28;20083;-64
2022/08/23 02:16:52;;;;;;;5.78;3.67;;;20.40;94.80;;;;;;5014008;28;20076;-65
2022/08/23 02:19:19;;;;;;;7.05;3.38;;;20.40;94.90;;;;;;5013983;28;20528;-65
2022/08/23 02:21:46;;;;;;;6.93;3.58;;;20.40;95.00;;;;;;5013915;28;20026;-65
2022/08/23 02:24:23;;;;;;;6.70;3.80;;;20.40;95.00;;;;;;5014088;28;20074;-65
2022/08/23 02:26:52;;;;;;;6.93;4.00;;;20.30;95.10;;;;;;5013898;28;20398;-65
2022/08/23 02:29:22;;;;;;;6.82;4.18;;;20.20;95.20;;;;;;5013895;28;20041;-65
2022/08/23 02:31:49;;;;;;;6.28;3.80;;;20.30;95.30;;;;;;5013756;28;20041;-65
2022/08/23 02:34:17;;;;;;;6.55;3.85;;;20.30;95.30;;;;;;5014085;28;20063;-64
2022/08/23 02:36:44;;;;;;;6.43;3.87;;;20.20;95.30;;;;;;5013600;28;20033;-65
2022/08/23 02:39:12;;;;;;;6.75;3.65;;;20.20;95.40;;;;;;5031511;28;20358;-65
2022/08/23 02:41:40;;;;;;;5.70;3.80;;;20.10;95.40;;;;;;5031311;28;20029;-63
2022/08/23 02:44:09;;;;;;;6.95;3.90;;;20.10;95.50;;;;;;5013812;28;20410;-65
2022/08/23 02:46:37;;;;;;;6.45;4.20;;;20.10;95.60;;;;;;5013149;28;20036;-65
2022/08/23 02:49:04;;;;;;;6.40;3.92;;;20.00;95.60;;;;;;5013368;28;20680;-65
2022/08/23 02:51:30;;;;;;;6.90;3.92;;;20.00;95.80;;;;;;5013600;28;20029;-65
2022/08/23 02:53:57;;;;;;;7.95;3.95;;;20.00;95.80;;;;;;5013266;28;20048;-65
2022/08/23 02:56:24;;;;;;;6.88;3.92;;;20.00;95.90;;;;;;5013197;28;20109;-63
2022/08/23 02:58:51;;;;;;;9.77;3.95;;;20.00;95.90;;;;;;5013002;28;20075;-66
2022/08/23 03:01:21;;;;;;;6.32;3.65;;;20.00;95.90;;;;;;5013343;28;20030;-65
2022/08/23 03:03:50;;;;;;;6.72;4.00;;;19.90;96.00;;;;;;5013303;28;20033;-65
2022/08/23 03:06:16;;;;;;;12.80;7.60;;;19.90;96.00;;;;;;5030990;28;20425;-64
2022/08/23 03:08:43;;;;;;;12.63;5.10;;;19.90;96.00;;;;;;5012900;28;20056;-63
2022/08/23 03:11:12;;;;;;;7.03;4.07;;;19.90;96.10;;;;;;5013147;28;20036;-65
2022/08/23 03:13:40;;;;;;;8.82;4.10;;;19.80;96.10;;;;;;5013088;28;20033;-66
2022/08/23 03:16:07;;;;;;;8.00;3.90;;;19.80;96.10;;;;;;5013097;28;20053;-65
2022/08/23 03:18:35;;;;;;;7.20;3.80;;;19.80;96.20;;;;;;5012882;28;20061;-65
2022/08/23 03:21:05;;;;;;;6.43;4.30;;;19.80;96.30;;;;;;5012892;28;20129;-64
2022/08/23 03:23:33;;;;;;;7.05;4.00;;;19.70;96.30;;;;;;5012802;28;20029;-65
2022/08/23 03:26:02;;;;;;;6.75;3.92;;;19.70;96.40;;;;;;5023859;28;20080;-64
2022/08/23 03:28:31;;;;;;;8.82;4.28;;;19.70;96.40;;;;;;5005434;28;20113;-65
2022/08/23 03:30:58;;;;;;;7.20;4.25;;;19.70;96.40;;;;;;5011721;28;20064;-68
2022/08/23 03:33:24;;;;;;;7.43;4.22;;;19.70;96.50;;;;;;5029994;28;20025;-65
2022/08/23 03:35:50;;;;;;;5.78;3.75;;;19.70;96.40;;;;;;5011107;28;20091;-64
2022/08/23 03:38:18;;;;;;;6.75;3.95;;;19.60;96.50;;;;;;5012001;28;20129;-65
2022/08/23 03:40:46;;;;;;;5.90;4.00;;;19.60;96.50;;;;;;5011716;28;20034;-65
2022/08/23 03:43:13;;;;;;;6.90;3.80;;;19.60;96.60;;;;;;5011478;28;20056;-66
2022/08/23 03:45:39;;;;;;;7.15;3.80;;;19.60;96.60;;;;;;5011777;28;20025;-65
2022/08/23 03:48:06;;;;;;;6.38;3.95;;;19.60;96.60;;;;;;5011530;28;20029;-66
2022/08/23 03:50:34;;;;;;;6.43;3.60;;;19.60;96.40;;;;;;5011544;28;20026;-65
2022/08/23 03:53:00;;;;;;;5.13;3.78;;;19.60;96.50;;;;;;5011737;28;20026;-66
2022/08/23 03:55:26;;;;;;;5.78;3.88;;;19.50;96.30;;;;;;5011852;28;20516;-66
2022/08/23 03:57:53;;;;;;;6.13;3.80;;;19.60;96.30;;;;;;5028816;28;20022;-65
2022/08/23 04:00:21;;;;;;;5.65;4.00;;;19.50;96.30;;;;;;5011691;28;20120;-66
2022/08/23 04:02:50;;;;;;;5.70;3.78;;;19.50;96.30;;;;;;5011484;28;20659;-65
2022/08/23 04:05:16;;;;;;;7.90;4.25;;;19.50;96.40;;;;;;5011738;28;20038;-65
2022/08/23 04:07:51;;;;;;;7.43;3.92;;;19.50;96.30;;;;;;5029138;28;20382;-66
2022/08/23 04:10:20;;;;;;;7.05;3.90;;;19.50;96.30;;;;;;5011450;28;20040;-66
2022/08/23 04:12:51;;;;;;;6.50;3.80;;;19.60;96.20;;;;;;5011097;28;20037;-65
2022/08/23 04:15:18;;;;;;;6.50;3.97;;;19.70;96.10;;;;;;5011974;28;20064;-65
2022/08/23 04:17:44;;;;;;;5.25;3.50;;;19.70;96.00;;;;;;5011353;28;20064;-65
2022/08/23 04:20:10;;;;;;;7.80;3.60;;;19.80;95.90;;;;;;5011431;28;20069;-65
2022/08/23 04:22:51;;;;;;;7.30;4.13;;;19.80;95.60;;;;;;5011667;28;20037;-65
2022/08/23 04:25:18;;;;;;;6.80;4.20;;;19.90;95.40;;;;;;5011208;28;20553;-65
2022/08/23 04:27:44;;;;;;;8.40;3.97;;;19.90;95.20;;;;;;4998967;28;20117;-64
2022/08/23 04:30:11;;;;;;;7.28;3.72;;;20.00;95.20;;;;;;5009146;28;20026;-64
2022/08/23 04:32:39;;;;;;;6.88;3.80;;;20.00;95.00;;;;;;4994464;28;20125;-65
2022/08/23 04:35:05;;;;;;;8.13;3.90;;;20.00;95.00;;;;;;4995346;28;20054;-66
2022/08/23 04:37:34;;;;;;;8.40;4.47;;;20.00;94.80;;;;;;4994373;28;20038;-65
2022/08/23 04:42:45;;;;;;;6.72;3.60;;;20.00;94.80;;;;;;4994531;28;20298;-66
2022/08/23 04:45:12;;;;;;;5.75;3.75;;;19.90;94.50;;;;;;4995220;28;20116;-65
2022/08/23 04:47:44;;;;;;;8.38;3.90;;;19.90;94.50;;;;;;4994562;28;20122;-65
2022/08/23 04:50:10;;;;;;;5.53;3.67;;;19.90;94.10;;;;;;4994744;28;20862;-65
2022/08/23 04:52:52;;;;;;;10.02;4.25;;;20.00;93.80;;;;;;4994950;28;20549;-66
2022/08/23 04:55:18;;;;;;;7.47;4.38;;;20.00;93.50;;;;;;5012857;28;20108;-64
2022/08/23 04:57:48;;;;;;;6.80;4.00;;;20.00;93.80;;;;;;4994641;28;20060;-66
2022/08/23 05:00:19;;;;;;;6.72;3.97;;;20.00;93.40;;;;;;4994901;28;20096;-66
2022/08/23 05:02:51;;;;;;;8.27;4.03;;;20.10;93.40;;;;;;4994951;28;20026;-66
2022/08/23 05:05:19;;;;;;;6.47;3.58;;;20.10;93.40;;;;;;5012889;28;20034;-65
2022/08/23 05:07:46;;;;;;;8.57;3.47;;;20.10;93.50;;;;;;5011947;28;20026;-65
2022/08/23 05:10:15;;;;;;;8.05;3.85;;;20.00;93.40;;;;;;4994415;28;20022;-66
2022/08/23 05:12:46;;;;;;;7.03;3.75;;;20.10;93.50;;;;;;4993874;28;20414;-65
2022/08/23 05:15:13;;;;;;;9.10;3.70;;;20.10;93.60;;;;;;4993954;28;20133;-67
2022/08/23 05:17:44;;;;;;;7.97;4.00;;;20.00;93.60;;;;;;4994152;28;20076;-66
2022/08/23 05:20:10;;;;;;;9.13;4.25;;;20.00;93.80;;;;;;4994543;28;20110;-66
2022/08/23 05:22:39;;;;;;;8.43;4.00;;;20.00;93.90;;;;;;4994456;28;20026;-66
2022/08/23 05:25:50;;;;;;;6.95;3.95;;;20.00;94.10;;;;;;5010444;28;20114;-65
2022/08/23 05:28:24;;;;;;;8.55;4.97;;;20.00;94.20;;;;;;4994160;28;20029;-66
2022/08/23 05:31:01;;;;;;;11.32;5.50;;;20.10;94.20;;;;;;4994393;28;20029;-67
2022/08/23 05:33:29;;;;;;;12.10;4.57;;;20.10;94.30;;;;;;4994308;28;20446;-65
2022/08/23 05:35:55;;;;;;;14.23;5.90;;;20.10;94.40;;;;;;5012061;28;20032;-65
2022/08/23 05:38:22;;;;;;;10.77;4.78;;;20.10;94.50;;;;;;4994366;28;20116;-66
2022/08/23 05:40:53;;;;;;;8.20;4.38;;;20.10;94.60;;;;;;4994115;28;20528;-66
2022/08/23 05:43:19;;;;;;;10.20;4.45;;;20.00;94.60;;;;;;4993531;28;20479;-65
2022/08/23 05:45:46;;;;;;;8.18;4.57;;;20.00;94.50;;;;;;4994223;28;20392;-66
2022/08/23 05:48:14;;;;;;;9.55;4.68;;;20.10;94.40;;;;;;4994145;28;20038;-65
2022/08/23 05:50:47;;;;;;;9.85;4.57;;;20.10;94.40;;;;;;4993949;28;20182;-66
2022/08/23 05:53:14;;;;;;;10.80;5.18;;;20.10;94.10;;;;;;4993927;28;20030;-66
2022/08/23 05:55:42;;;;;;;9.10;4.75;;;20.10;94.10;;;;;;4993151;28;20141;-66
2022/08/23 05:58:16;;;;;;;12.05;5.90;;;20.20;94.10;;;;;;4993488;28;20030;-66
2022/08/23 06:00:43;;;;;;;7.22;4.50;;;20.20;94.00;;;;;;4993624;28;20033;-66
2022/08/23 06:03:09;;;;;;;10.63;4.38;;;20.20;93.90;;;;;;4993598;28;20030;-65
2022/08/23 06:05:43;;;;;;;7.00;4.10;;;20.20;93.80;;;;;;4993730;28;20030;-65
2022/08/23 06:08:10;;;;;;;6.97;3.75;;;20.30;93.70;;;;;;4993392;28;20061;-64
2022/08/23 06:10:36;;;;;;;10.02;3.90;;;20.30;93.60;;;;;;4993521;28;20115;-64
2022/08/23 06:13:16;;;;;;;7.32;3.67;;;20.40;93.40;;;;;;4993149;28;20077;-65
2022/08/23 06:15:43;;;;;;;12.00;4.07;;;20.40;93.20;;;;;;5011524;28;20410;-65
2022/08/23 06:18:12;;;;;;;10.38;3.80;;;20.50;93.10;;;;;;4993564;28;20041;-65
2022/08/23 06:20:38;;;;;;;5.75;3.70;;;20.50;93.00;;;;;;4993447;28;20034;-66
2022/08/23 06:23:07;;;;;;;10.32;4.18;;;20.60;93.10;;;;;;4993483;28;20065;-65
2022/08/23 06:25:38;;;;;;;9.95;4.07;;;20.60;93.10;;;;;;4993597;28;20120;-64
2022/08/23 06:28:10;;;;;;;11.98;4.32;;;20.70;93.10;;;;;;5006777;28;20059;-65
2022/08/23 06:30:38;;;;;;;14.57;4.28;;;20.70;93.10;;;;;;5031993;28;20082;-64
2022/08/23 06:33:13;;;;;;;8.63;4.70;;;20.80;93.40;;;;;;5016802;28;20104;-65
2022/08/23 06:35:45;;;;;;;9.88;4.15;;;20.90;92.90;;;;;;5050445;28;20037;-63
2022/08/23 06:38:28;;;;;;;9.45;3.60;;;20.90;93.10;;;;;;5032337;28;20039;-64
2022/08/23 06:41:16;;;;;;;10.52;4.60;;;21.00;93.10;;;;;;5048576;28;20575;-64
2022/08/23 06:44:08;;;;;;;8.15;3.60;;;21.10;93.00;;;;;;5045950;28;20103;-64
2022/08/23 06:46:55;;;;;;;11.55;3.90;;;21.10;92.80;;;;;;5050596;28;20120;-64
2022/08/23 06:49:22;;;;;;;9.85;4.30;;;21.20;92.80;;;;;;5032243;28;20433;-65
2022/08/23 06:51:50;;;;;;;9.82;4.30;;;21.20;92.60;;;;;;5050366;28;20017;-64
2022/08/23 06:54:30;;;;;;;;;;;21.20;92.60;;;;;;5012898;28;20578;-65
2022/08/23 06:57:05;;;;;;;;;;;21.30;92.60;;;;;;5029644;28;19916;-67
2022/08/23 06:59:46;;;;;;;;;;;21.30;92.50;;;;;;5012006;28;19909;-64
2022/08/23 07:02:24;;;;;;;;;;;21.30;93.50;;;;;;5004825;28;19910;-64
2022/08/23 07:05:08;;;;;;;;;;;21.30;94.00;;;;;;5030463;28;19971;-65
2022/08/23 07:07:37;;;;;;;;;;;21.30;94.20;;;;;;5029492;28;19920;-65
2022/08/23 07:10:04;;;;;;;;;;;21.30;93.80;;;;;;5012563;28;19936;-64
2022/08/23 07:12:31;;;;;;;;;;;21.40;93.80;;;;;;5012228;28;19991;-65
2022/08/23 07:14:57;;;;;;;;;;;21.40;93.50;;;;;;5012834;28;20389;-65
2022/08/23 07:17:24;;;;;;;;;;;21.40;93.30;;;;;;5029886;28;19908;-64
2022/08/23 07:19:50;;;;;;;;;;;21.40;93.80;;;;;;5012156;28;20007;-63
2022/08/23 07:22:17;;;;;;;;;;;21.40;94.10;;;;;;5012416;28;19913;-64
2022/08/23 07:24:43;;;;;;;;;;;21.50;93.40;;;;;;4996212;28;19996;-67
2022/08/23 07:27:09;;;;;;;;;;;21.50;92.80;;;;;;5012314;28;20023;-65
2022/08/23 07:29:53;;;;;;;;;;;21.60;92.80;;;;;;5012259;28;19952;-66
2022/08/23 07:32:19;;;;;;;;;;;21.60;93.50;;;;;;5038190;23;19970;-71
2022/08/23 07:34:45;;;;;;;;;;;21.60;94.10;;;;;;5069409;28;20320;-71
2022/08/23 07:37:12;;;;;;;;;;;21.70;93.80;;;;;;5069988;28;19912;-71
2022/08/23 07:39:38;;;;;;;;;;;21.70;94.30;;;;;;5068629;28;19934;-71
2022/08/23 07:42:04;;;;;;;;;;;21.70;94.00;;;;;;5068496;28;19995;-71
2022/08/23 07:44:33;;;;;;;;;;;21.70;94.80;;;;;;5068019;28;20455;-79
2022/08/23 07:46:59;;;;;;;;;;;21.70;95.40;;;;;;5085437;28;19912;-71
2022/08/23 07:49:26;;;;;;;;;;;21.70;96.60;;;;;;5068171;28;19912;-70
2022/08/23 07:51:53;;;;;;;;;;;21.70;96.50;;;;;;5066780;28;19912;-69
2022/08/23 07:54:21;;;;;;;;;;;21.70;97.40;;;;;;5057554;28;20268;-69
2022/08/23 07:57:06;;;;;;;;;;;21.70;95.90;;;;;;5067141;28;19973;-69
2022/08/23 07:59:51;;;;;;;;;;;21.70;94.00;;;;;;5069755;28;20422;-68
2022/08/23 08:02:35;;;;;;;;;;;21.70;94.40;;;;;;5070115;28;19971;-68
2022/08/23 08:05:02;;;;;;;;;;;21.70;93.70;;;;;;5068790;28;20360;-68
2022/08/23 08:07:28;;;;;;;;;;;21.80;93.70;;;;;;5070711;28;19912;-68
2022/08/23 08:09:57;;;;;;;;;;;21.80;93.80;;;;;;5071693;28;19908;-70
2022/08/23 08:12:25;;;;;;;;;;;21.80;95.70;;;;;;5071280;28;19908;-70
2022/08/23 08:14:54;;;;;;;;;;;21.80;96.60;;;;;;5071922;28;19920;-70
2022/08/23 08:17:24;;;;;;;;;;;21.80;95.60;;;;;;5071526;28;19915;-70
2022/08/23 08:20:29;;;;;;;;;;;21.80;94.90;;;;;;5010622;28;19918;-70
2022/08/23 08:23:18;;;;;;;;;;;21.80;96.10;;;;;;5013289;28;20356;-70
2022/08/23 08:26:13;;;;;;;;;;;21.90;94.30;;;;;;5064325;28;20003;-69
2022/08/23 08:28:51;;;;;;;;;;;21.90;93.10;;;;;;5070872;28;19958;-70
2022/08/23 08:31:17;;;;;;;;;;;22.00;92.90;;;;;;5071572;28;19969;-69
2022/08/23 08:33:43;;;;;;;;;;;22.10;92.60;;;;;;5071250;28;19927;-70
2022/08/23 08:36:35;;;;;;;;;;;22.10;93.60;;;;;;5071545;28;19952;-70
2022/08/23 08:39:04;;;;;;;;;;;22.10;92.80;;;;;;5071295;28;19912;-70
2022/08/23 08:41:39;;;;;;;;;;;22.10;92.60;;;;;;5071346;28;20327;-69
2022/08/23 08:44:24;;;;;;;;;;;22.20;92.40;;;;;;5072421;28;20189;-69
2022/08/23 08:46:53;;;;;;;;;;;22.20;92.50;;;;;;5070980;28;20167;-69
2022/08/23 08:49:40;;;;;;;;;;;22.30;92.90;;;;;;5070987;28;20403;-70
2022/08/23 08:52:14;;;;;;;;;;;22.30;93.60;;;;;;5061311;28;19908;-69
2022/08/23 08:54:41;;;;;;;;;;;22.20;92.90;;;;;;5071264;28;19994;-68
2022/08/23 08:57:08;;;;;;;;;;;22.30;93.90;;;;;;5070793;28;19915;-69
2022/08/23 08:59:59;;;;;;;;;;;22.20;94.50;;;;;;5070826;28;19915;-68
2022/08/23 09:02:30;;;;;;;;;;;22.20;95.60;;;;;;5071056;28;19904;-68
2022/08/23 09:04:58;;;;;;;;;;;22.20;94.80;;;;;;5071291;28;20280;-68
2022/08/23 09:07:49;;;;;;;;;;;22.20;95.90;;;;;;5072795;28;20077;-69
2022/08/23 09:10:15;;;;;;;;;;;22.10;96.80;;;;;;5074269;28;19915;-68
2022/08/23 09:13:12;;;;;;;;;;;22.10;96.80;;;;;;5072963;28;20399;-68
2022/08/23 09:15:37;;;;;;;;;;;22.10;96.70;;;;;;5072336;28;19951;-69
2022/08/23 09:18:08;;;;;;;;;;;22.10;97.20;;;;;;5070721;28;19919;-68
2022/08/23 09:20:36;;;;;;;;;;;22.20;94.70;;;;;;5070732;28;20387;-68
2022/08/23 09:23:16;;;;;;;;;;;22.30;92.90;;;;;;5070754;28;19915;-68
2022/08/23 09:51:40;;;;;;;10.02;4.72;;;22.90;90.60;;;;;;5128440;27;20112;-69
2022/08/23 09:54:32;;;;;;;11.60;4.78;;;23.00;90.10;;;;;;5126872;28;20144;-71
2022/08/23 09:57:02;;;;;;;9.50;4.80;;;23.10;90.30;;;;;;5126852;28;20028;-71
2022/08/23 09:59:50;;;;;;;8.93;4.20;;;23.10;90.60;;;;;;5126503;28;20031;-71
2022/08/23 10:02:32;;;;;;;10.20;5.22;;;23.10;90.90;;;;;;5127016;28;20035;-71
2022/08/23 10:05:34;;;;;;;16.15;5.88;;;23.10;90.70;;;;;;5127089;28;20384;-71
2022/08/23 10:08:02;;;;;;;12.75;5.35;;;23.30;89.00;;;;;;5128954;28;20034;-70
2022/08/23 10:10:34;;;;;;;8.52;4.65;;;23.30;89.20;;;;;;5126362;28;20050;-70
2022/08/23 10:13:04;;;;;;;10.23;4.97;;;23.30;89.60;;;;;;5129372;27;20019;-72
2022/08/23 10:15:53;;;;;;;11.50;4.80;;;23.30;90.20;;;;;;5147358;27;20498;-71
2022/08/23 10:18:54;;;;;;;10.25;4.78;;;23.20;90.60;;;;;;5147196;27;20492;-72
2022/08/23 10:22:00;;;;;;;12.13;4.53;;;23.20;90.80;;;;;;5146846;27;20030;-72
2022/08/23 10:24:43;;;;;;;14.90;5.88;;;23.20;89.50;;;;;;5083143;27;20038;-71
2022/08/23 10:30:13;;;;;;;9.60;4.72;;;23.40;87.50;;;;;;5146231;27;20076;-71
2022/08/23 10:33:09;;;;;;;14.48;5.45;;;23.60;87.40;;;;;;5145838;27;20027;-70
2022/08/23 10:35:54;;;;;;;9.20;3.95;;;23.70;86.30;;;;;;5145675;27;20118;-70
2022/08/23 10:38:33;;;;;;;8.60;4.50;;;23.80;86.50;;;;;;5145734;27;20027;-72
2022/08/23 10:41:07;;;;;;;9.07;4.20;;;23.80;87.40;;;;;;5145344;27;20496;-70
2022/08/23 10:43:36;;;;;;;9.52;4.70;;;23.80;86.40;;;;;;5145392;27;20027;-73
2022/08/23 10:46:02;;;;;;;8.27;4.22;;;23.80;86.70;;;;;;5145822;27;20110;-71
2022/08/23 10:48:47;;;;;;;15.13;5.53;;;23.80;87.50;;;;;;5145625;27;20031;-71
2022/08/23 10:51:25;;;;;;;13.60;5.15;;;23.80;86.00;;;;;;5146387;27;20122;-71
2022/08/23 10:54:06;;;;;;;13.73;5.15;;;23.80;86.30;;;;;;5147505;27;20366;-71
2022/08/23 10:56:34;;;;;;;14.32;6.32;;;23.90;85.60;;;;;;5146141;27;20049;-71
2022/08/23 10:59:19;;;;;;;14.68;6.43;;;24.10;84.50;;;;;;5147146;27;20451;-71
2022/08/23 11:01:51;;;;;;;15.38;6.03;;;24.20;84.90;;;;;;5140358;27;20030;-71
2022/08/23 11:04:33;;;;;;;14.45;5.28;;;24.10;85.50;;;;;;5133796;27;20471;-69
2022/08/23 11:07:27;;;;;;;15.45;6.30;;;24.30;84.30;;;;;;5117651;27;20054;-72
2022/08/23 11:10:09;;;;;;;11.20;4.55;;;24.40;83.00;;;;;;5131894;27;20023;-69
2022/08/23 11:12:56;;;;;;;19.13;5.53;;;24.50;82.70;;;;;;5132228;27;20092;-72
2022/08/23 11:16:05;;;;;;;10.32;3.90;;;24.50;87.60;;;;;;5137075;27;20439;-75
2022/08/23 11:18:48;;;;;;;13.10;3.90;;;24.60;83.00;;;;;;5088165;27;20031;-70
2022/08/23 11:21:23;;;;;;;13.25;3.92;;;24.50;82.80;;;;;;5133275;27;20058;-71
2022/08/23 11:23:57;;;;;;;8.38;3.67;;;24.50;82.70;;;;;;5131872;27;20121;-71
2022/08/23 11:26:28;;;;;;;8.88;4.45;;;24.50;83.40;;;;;;5131924;27;20045;-70
2022/08/23 11:29:06;;;;;;;13.23;3.60;;;24.50;82.70;;;;;;5130610;27;20513;-70
2022/08/23 11:32:11;;;;;;;7.82;3.25;;;24.60;81.60;;;;;;5130773;27;20035;-71
2022/08/23 11:35:04;;;;;;;8.98;3.50;;;24.70;81.40;;;;;;5130989;27;20114;-70
2022/08/23 11:37:49;;;;;;;9.73;3.92;;;24.70;81.90;;;;;;5130690;27;20027;-70
2022/08/23 11:40:41;;;;;;;8.05;3.60;;;24.70;80.90;;;;;;5130570;27;20027;-70
2022/08/23 11:43:40;;;;;;;7.63;3.70;;;24.70;80.90;;;;;;5130837;27;20057;-70
2022/08/23 11:46:15;;;;;;;6.88;3.72;;;24.70;81.00;;;;;;5113986;27;20104;-71
2022/08/23 11:48:48;;;;;;;8.95;3.15;;;24.70;81.40;;;;;;5130866;27;20031;-70
2022/08/23 11:51:35;;;;;;;7.63;3.78;;;24.60;82.50;;;;;;5130936;27;20416;-70
2022/08/23 11:54:30;;;;;;;7.50;3.97;;;24.70;81.20;;;;;;5132681;27;20027;-69
2022/08/23 11:57:24;;;;;;;7.10;3.67;;;24.70;81.10;;;;;;5132029;27;20487;-70
2022/08/23 12:00:20;;;;;;;11.60;3.55;;;24.70;81.10;;;;;;5132453;27;20035;-69
2022/08/23 12:03:02;;;;;;;9.13;3.00;;;24.60;82.90;;;;;;5130758;27;20112;-72
2022/08/23 12:05:33;;;;;;;6.43;2.90;;;24.50;85.30;;;;;;5131463;27;20122;-72
2022/08/23 12:08:03;;;;;;;7.82;3.10;;;24.40;83.30;;;;;;5132322;27;20458;-73
2022/08/23 12:10:41;;;;;;;8.10;2.90;;;24.50;81.60;;;;;;5132508;27;20023;-72
2022/08/23 12:13:21;;;;;;;10.57;3.58;;;24.60;79.50;;;;;;5131371;27;20541;-73
2022/08/23 12:16:06;;;;;;;5.90;3.08;;;24.90;77.60;;;;;;5130806;27;20029;-71
2022/08/23 12:18:52;;;;;;;5.38;2.72;;;25.10;77.10;;;;;;5131775;27;20091;-73
2022/08/23 12:21:40;;;;;;;7.25;3.60;;;25.20;76.30;;;;;;5132276;27;20031;-72
2022/08/23 12:24:21;;;;;;;;;;;25.30;76.10;;;;;;5132497;27;20038;-73
2022/08/23 12:27:04;;;;;;;7.55;3.28;;;25.30;76.80;;;;;;5127262;27;19918;-73
2022/08/23 12:29:53;;;;;;;8.75;2.95;;;25.40;76.40;;;;;;5108264;28;20027;-72
2022/08/23 12:32:34;;;;;;;5.75;2.90;;;25.50;75.30;;;;;;5106004;28;20020;-73
2022/08/23 12:35:15;;;;;;;8.82;2.85;;;25.70;74.90;;;;;;5100812;28;20028;-73
2022/08/23 12:37:58;;;;;;;9.80;3.20;;;25.70;74.70;;;;;;5110731;28;20298;-73
2022/08/23 12:40:47;;;;;;;7.03;3.40;;;25.80;75.60;;;;;;5111510;28;20031;-73
2022/08/23 12:43:13;;;;;;;8.68;2.78;;;25.90;75.30;;;;;;5093910;28;20039;-73
2022/08/23 12:45:45;;;;;;;10.38;3.72;;;26.00;75.30;;;;;;5112099;28;20027;-73
2022/08/23 12:48:14;;;;;;;9.05;3.33;;;26.00;74.80;;;;;;5110556;28;20027;-70
2022/08/23 12:50:50;;;;;;;8.57;3.70;;;26.00;75.20;;;;;;5110367;28;20404;-73
2022/08/23 12:53:27;;;;;;;7.82;2.85;;;26.10;75.90;;;;;;5112215;28;20043;-73
2022/08/23 12:56:00;;;;;;;8.10;3.10;;;26.20;75.00;;;;;;5110291;28;20051;-74
2022/08/23 12:58:29;;;;;;;10.18;6.30;;;26.30;75.00;;;;;;5112002;28;20049;-73
2022/08/23 13:00:58;;;;;;;6.32;2.85;;;26.30;75.00;;;;;;5111733;28;20548;-73
2022/08/23 13:03:42;;;;;;;8.48;2.90;;;26.30;74.50;;;;;;5111501;28;20053;-73
2022/08/23 13:06:12;;;;;;;5.55;2.30;;;26.40;74.80;;;;;;5111647;28;20074;-72
2022/08/23 13:08:42;;;;;;;6.38;2.72;;;26.40;74.70;;;;;;5111260;28;20088;-73
2022/08/23 13:11:10;;;;;;;8.27;2.90;;;26.50;74.40;;;;;;5111260;28;20028;-73
2022/08/23 13:13:37;;;;;;;;;;;26.50;74.70;;;;;;5111818;28;20534;-73
2022/08/23 13:16:23;;;;;;;6.82;2.70;;;26.50;74.40;;;;;;5110083;28;19933;-73
2022/08/23 13:18:49;;;;;;;9.02;3.55;;;26.50;74.50;;;;;;5111606;28;20031;-73
2022/08/23 13:21:21;;;;;;;5.65;2.90;;;26.50;74.50;;;;;;5111555;28;20019;-73
2022/08/23 13:23:52;;;;;;;7.22;2.50;;;26.40;75.00;;;;;;5111684;28;20043;-73
2022/08/23 13:26:38;;;;;;;11.30;3.08;;;26.50;74.90;;;;;;5111263;28;20032;-73
2022/08/23 13:29:05;;;;;;;7.97;3.10;;;26.50;75.20;;;;;;5111659;28;20051;-73
2022/08/23 13:34:43;;;;;;;4.72;2.40;;;26.60;75.30;;;;;;5009434;28;20127;-73
2022/08/23 13:37:17;;;;;;;7.75;2.85;;;26.60;75.50;;;;;;5011159;28;20082;-72
2022/08/23 13:39:46;;;;;;;7.25;2.70;;;26.60;75.60;;;;;;5009713;28;20045;-72
2022/08/23 13:42:11;;;;;;;7.80;2.38;;;26.60;75.60;;;;;;5011259;28;20021;-73
2022/08/23 13:44:38;;;;;;;7.10;2.80;;;26.70;74.90;;;;;;5011229;28;20041;-72
2022/08/23 13:47:05;;;;;;;6.90;2.75;;;26.70;75.00;;;;;;5009738;28;20076;-72
2022/08/23 13:49:36;;;;;;;4.50;2.33;;;26.70;74.80;;;;;;5010829;28;20113;-73
2022/08/23 13:52:07;;;;;;;7.50;2.40;;;26.60;75.70;;;;;;5011175;28;20109;-72
2022/08/23 13:54:34;;;;;;;9.50;2.50;;;26.50;76.00;;;;;;5011444;28;20026;-73
2022/08/23 13:57:04;;;;;;;9.15;3.25;;;26.50;75.80;;;;;;5011074;28;20026;-73
2022/08/23 13:59:32;;;;;;;5.57;2.25;;;26.60;75.30;;;;;;4993047;28;20549;-73
2022/08/23 14:02:05;;;;;;;11.95;2.60;;;26.60;74.90;;;;;;5042638;28;20026;-72
2022/08/23 14:04:31;;;;;;;10.13;2.90;;;26.80;74.10;;;;;;5011073;28;20033;-73
2022/08/23 14:06:57;;;;;;;5.88;2.60;;;27.00;74.10;;;;;;5010919;28;20026;-72
2022/08/23 14:09:23;;;;;;;5.32;2.20;;;27.00;73.80;;;;;;5010700;28;20051;-72
2022/08/23 14:11:53;;;;;;;4.53;2.33;;;26.90;73.90;;;;;;5010836;28;20061;-72